sensor_id;sensor_type;location;lat;lon;timestamp;pressure;altitude;pressure_sealevel;temperature;humidity
30856;BME280;17570;0.000;0.000;2023-07-24T00:01:55;97172.20;;;29.29;38.04
30856;BME280;17570;0.000;0.000;2023-07-24T00:04:23;97173.36;;;29.21;38.05
30856;BME280;17570;0.000;0.000;2023-07-24T00:06:50;97171.50;;;29.21;38.05
30856;BME280;17570;0.000;0.000;2023-07-24T00:09:18;97163.38;;;29.16;38.19
30856;BME280;17570;0.000;0.000;2023-07-24T00:11:45;97170.23;;;29.12;38.07
30856;BME280;17570;0.000;0.000;2023-07-24T00:14:14;97172.91;;;29.12;38.17
30856;BME280;17570;0.000;0.000;2023-07-24T00:16:41;97174.78;;;29.12;38.08
30856;BME280;17570;0.000;0.000;2023-07-24T00:19:09;97171.41;;;29.05;38.09
30856;BME280;17570;0.000;0.000;2023-07-24T00:21:36;97168.16;;;29.03;38.01
30856;BME280;17570;0.000;0.000;2023-07-24T00:24:04;97170.27;;;29.01;38.00
30856;BME280;17570;0.000;0.000;2023-07-24T00:26:31;97171.30;;;29.00;38.11
30856;BME280;17570;0.000;0.000;2023-07-24T00:28:59;97174.78;;;29.00;38.11
30856;BME280;17570;0.000;0.000;2023-07-24T00:31:27;97173.16;;;28.99;38.19
30856;BME280;17570;0.000;0.000;2023-07-24T00:33:54;97173.16;;;28.99;38.18
30856;BME280;17570;0.000;0.000;2023-07-24T00:36:22;97172.34;;;28.98;38.37
30856;BME280;17570;0.000;0.000;2023-07-24T00:38:49;97169.92;;;28.97;38.56
30856;BME280;17570;0.000;0.000;2023-07-24T00:41:17;97168.05;;;28.97;38.40
30856;BME280;17570;0.000;0.000;2023-07-24T00:43:44;97161.52;;;28.93;38.35
30856;BME280;17570;0.000;0.000;2023-07-24T00:46:12;97159.90;;;28.92;38.51
30856;BME280;17570;0.000;0.000;2023-07-24T00:48:40;97155.12;;;28.94;38.41
30856;BME280;17570;0.000;0.000;2023-07-24T00:51:08;97161.16;;;28.90;38.40
30856;BME280;17570;0.000;0.000;2023-07-24T00:53:35;97160.60;;;28.88;38.46
30856;BME280;17570;0.000;0.000;2023-07-24T00:56:03;97160.36;;;28.89;38.46
30856;BME280;17570;0.000;0.000;2023-07-24T00:58:31;97166.05;;;28.93;38.40
30856;BME280;17570;0.000;0.000;2023-07-24T01:01:00;97166.75;;;28.88;38.34
30856;BME280;17570;0.000;0.000;2023-07-24T01:03:32;97162.22;;;28.89;38.40
30856;BME280;17570;0.000;0.000;2023-07-24T01:06:03;97168.38;;;28.89;38.25
30856;BME280;17570;0.000;0.000;2023-07-24T01:08:30;97157.58;;;28.84;38.31
30856;BME280;17570;0.000;0.000;2023-07-24T01:10:59;97163.73;;;28.85;38.40
30856;BME280;17570;0.000;0.000;2023-07-24T01:13:30;97156.52;;;28.85;38.42
30856;BME280;17570;0.000;0.000;2023-07-24T01:16:07;97154.66;;;28.86;38.37
30856;BME280;17570;0.000;0.000;2023-07-24T01:18:31;97154.09;;;28.84;38.40
30856;BME280;17570;0.000;0.000;2023-07-24T01:21:00;97153.50;;;28.82;38.41
30856;BME280;17570;0.000;0.000;2023-07-24T01:23:37;97147.94;;;28.83;38.39
30856;BME280;17570;0.000;0.000;2023-07-24T01:26:00;97156.17;;;28.82;38.34
30856;BME280;17570;0.000;0.000;2023-07-24T01:28:31;97150.39;;;28.73;38.17
30856;BME280;17570;0.000;0.000;2023-07-24T01:30:59;97148.87;;;28.65;38.14
30856;BME280;17570;0.000;0.000;2023-07-24T01:33:26;97150.13;;;28.63;38.17
30856;BME280;17570;0.000;0.000;2023-07-24T01:35:55;97151.67;;;28.59;38.22
30856;BME280;17570;0.000;0.000;2023-07-24T01:38:24;97158.03;;;28.58;38.37
30856;BME280;17570;0.000;0.000;2023-07-24T01:40:52;97150.50;;;28.55;38.34
30856;BME280;17570;0.000;0.000;2023-07-24T01:43:20;97157.47;;;28.56;38.47
30856;BME280;17570;0.000;0.000;2023-07-24T01:45:48;97155.25;;;28.53;38.50
30856;BME280;17570;0.000;0.000;2023-07-24T01:48:15;97158.16;;;28.51;38.52
30856;BME280;17570;0.000;0.000;2023-07-24T01:50:43;97153.87;;;28.50;38.58
30856;BME280;17570;0.000;0.000;2023-07-24T01:53:10;97149.34;;;28.51;38.47
30856;BME280;17570;0.000;0.000;2023-07-24T01:55:38;97146.88;;;28.49;38.45
30856;BME280;17570;0.000;0.000;2023-07-24T01:58:05;97145.50;;;28.46;38.41
30856;BME280;17570;0.000;0.000;2023-07-24T02:00:33;97147.36;;;28.46;38.46
30856;BME280;17570;0.000;0.000;2023-07-24T02:03:00;97147.93;;;28.48;38.38
30856;BME280;17570;0.000;0.000;2023-07-24T02:05:27;97146.31;;;28.47;38.46
30856;BME280;17570;0.000;0.000;2023-07-24T02:07:55;97136.67;;;28.46;38.54
30856;BME280;17570;0.000;0.000;2023-07-24T02:10:23;97144.21;;;28.37;38.59
30856;BME280;17570;0.000;0.000;2023-07-24T02:12:50;97131.43;;;28.39;38.45
30856;BME280;17570;0.000;0.000;2023-07-24T02:15:17;97134.46;;;28.43;38.45
30856;BME280;17570;0.000;0.000;2023-07-24T02:17:45;97136.20;;;28.37;38.72
30856;BME280;17570;0.000;0.000;2023-07-24T02:20:13;97136.09;;;28.56;38.80
30856;BME280;17570;0.000;0.000;2023-07-24T02:22:40;97134.58;;;28.71;40.06
30856;BME280;17570;0.000;0.000;2023-07-24T02:25:09;97134.58;;;28.71;39.97
30856;BME280;17570;0.000;0.000;2023-07-24T02:27:36;97139.67;;;28.85;40.43
30856;BME280;17570;0.000;0.000;2023-07-24T02:30:04;97141.65;;;28.89;40.35
30856;BME280;17570;0.000;0.000;2023-07-24T02:32:34;97131.66;;;28.85;40.14
30856;BME280;17570;0.000;0.000;2023-07-24T02:35:01;97137.95;;;28.79;39.90
30856;BME280;17570;0.000;0.000;2023-07-24T02:37:29;97134.81;;;28.70;39.65
30856;BME280;17570;0.000;0.000;2023-07-24T02:39:56;97136.45;;;28.59;39.58
30856;BME280;17570;0.000;0.000;2023-07-24T02:42:24;97147.59;;;28.56;39.46
30856;BME280;17570;0.000;0.000;2023-07-24T02:44:51;97140.27;;;28.52;39.27
30856;BME280;17570;0.000;0.000;2023-07-24T02:47:21;97132.95;;;28.47;39.30
30856;BME280;17570;0.000;0.000;2023-07-24T02:49:48;97136.08;;;28.44;39.26
30856;BME280;17570;0.000;0.000;2023-07-24T02:52:16;97131.67;;;28.38;39.08
30856;BME280;17570;0.000;0.000;2023-07-24T02:54:43;97137.31;;;28.30;38.81
30856;BME280;17570;0.000;0.000;2023-07-24T02:57:11;97151.23;;;28.20;38.84
30856;BME280;17570;0.000;0.000;2023-07-24T02:59:38;97143.91;;;28.15;38.76
30856;BME280;17570;0.000;0.000;2023-07-24T03:02:06;97142.29;;;28.14;38.94
30856;BME280;17570;0.000;0.000;2023-07-24T03:04:33;97137.64;;;28.10;39.17
30856;BME280;17570;0.000;0.000;2023-07-24T03:07:01;97134.16;;;28.09;39.23
30856;BME280;17570;0.000;0.000;2023-07-24T03:09:28;97128.58;;;28.11;39.21
30856;BME280;17570;0.000;0.000;2023-07-24T03:11:56;97136.94;;;28.03;38.84
30856;BME280;17570;0.000;0.000;2023-07-24T03:14:23;97137.84;;;27.96;38.82
30856;BME280;17570;0.000;0.000;2023-07-24T03:16:52;97143.86;;;27.92;38.87
30856;BME280;17570;0.000;0.000;2023-07-24T03:19:20;97147.81;;;27.89;38.76
30856;BME280;17570;0.000;0.000;2023-07-24T03:21:47;97141.66;;;27.89;39.15
30856;BME280;17570;0.000;0.000;2023-07-24T03:24:16;97139.20;;;27.87;39.15
30856;BME280;17570;0.000;0.000;2023-07-24T03:26:43;97137.01;;;27.84;39.42
30856;BME280;17570;0.000;0.000;2023-07-24T03:29:11;97144.64;;;27.81;39.46
30856;BME280;17570;0.000;0.000;2023-07-24T03:31:39;97133.61;;;27.77;39.11
30856;BME280;17570;0.000;0.000;2023-07-24T03:34:07;97137.77;;;27.73;38.99
30856;BME280;17570;0.000;0.000;2023-07-24T03:36:34;97146.81;;;27.72;38.86
30856;BME280;17570;0.000;0.000;2023-07-24T03:39:02;97150.36;;;27.66;38.88
30856;BME280;17570;0.000;0.000;2023-07-24T03:41:29;97155.09;;;27.64;38.92
30856;BME280;17570;0.000;0.000;2023-07-24T03:43:57;97166.00;;;27.62;39.34
30856;BME280;17570;0.000;0.000;2023-07-24T03:46:24;97158.00;;;27.62;39.41
30856;BME280;17570;0.000;0.000;2023-07-24T03:48:52;97142.00;;;27.62;39.49
30856;BME280;17570;0.000;0.000;2023-07-24T03:51:19;97126.80;;;27.63;39.46
30856;BME280;17570;0.000;0.000;2023-07-24T03:53:47;97139.91;;;27.64;39.36
30856;BME280;17570;0.000;0.000;2023-07-24T03:56:14;97139.09;;;27.64;39.46
30856;BME280;17570;0.000;0.000;2023-07-24T03:58:42;97140.95;;;27.63;39.39
30856;BME280;17570;0.000;0.000;2023-07-24T04:01:09;97129.70;;;27.61;39.68
30856;BME280;17570;0.000;0.000;2023-07-24T04:03:36;97140.95;;;27.63;39.67
30856;BME280;17570;0.000;0.000;2023-07-24T04:06:04;97135.37;;;27.65;39.45
30856;BME280;17570;0.000;0.000;2023-07-24T04:08:31;97143.98;;;27.67;39.28
30856;BME280;17570;0.000;0.000;2023-07-24T04:10:59;97145.61;;;27.68;39.79
30856;BME280;17570;0.000;0.000;2023-07-24T04:13:26;97154.21;;;27.70;39.75
30856;BME280;17570;0.000;0.000;2023-07-24T04:15:54;97148.03;;;27.69;39.91
30856;BME280;17570;0.000;0.000;2023-07-24T04:18:23;97139.02;;;27.70;40.01
30856;BME280;17570;0.000;0.000;2023-07-24T04:20:50;97145.38;;;27.69;39.77
30856;BME280;17570;0.000;0.000;2023-07-24T04:23:19;97146.01;;;27.71;39.26
30856;BME280;17570;0.000;0.000;2023-07-24T04:25:47;97145.38;;;27.69;39.05
30856;BME280;17570;0.000;0.000;2023-07-24T04:28:15;97147.23;;;27.69;38.71
30856;BME280;17570;0.000;0.000;2023-07-24T04:30:43;97141.08;;;27.68;38.76
30856;BME280;17570;0.000;0.000;2023-07-24T04:33:10;97136.95;;;27.73;39.07
30856;BME280;17570;0.000;0.000;2023-07-24T04:35:38;97144.52;;;27.76;39.19
30856;BME280;17570;0.000;0.000;2023-07-24T04:38:05;97147.89;;;27.83;39.33
30856;BME280;17570;0.000;0.000;2023-07-24T04:40:33;97144.78;;;27.86;39.41
30856;BME280;17570;0.000;0.000;2023-07-24T04:43:00;97140.02;;;27.88;39.09
30856;BME280;17570;0.000;0.000;2023-07-24T04:45:28;97135.28;;;27.90;38.46
30856;BME280;17570;0.000;0.000;2023-07-24T04:47:55;97134.23;;;27.91;39.10
30856;BME280;17570;0.000;0.000;2023-07-24T04:50:23;97128.45;;;27.94;38.90
30856;BME280;17570;0.000;0.000;2023-07-24T04:52:50;97129.63;;;27.98;38.96
30856;BME280;17570;0.000;0.000;2023-07-24T04:55:18;97134.84;;;28.05;38.91
30856;BME280;17570;0.000;0.000;2023-07-24T04:57:45;97134.16;;;28.09;37.87
30856;BME280;17570;0.000;0.000;2023-07-24T05:00:13;97130.20;;;28.12;38.34
30856;BME280;17570;0.000;0.000;2023-07-24T05:02:40;97135.91;;;28.15;38.50
30856;BME280;17570;0.000;0.000;2023-07-24T05:05:08;97140.34;;;28.21;37.52
30856;BME280;17570;0.000;0.000;2023-07-24T05:07:37;97134.31;;;28.26;37.29
30856;BME280;17570;0.000;0.000;2023-07-24T05:10:05;97136.05;;;28.32;37.20
30856;BME280;17570;0.000;0.000;2023-07-24T05:12:32;97132.97;;;28.35;37.02
30856;BME280;17570;0.000;0.000;2023-07-24T05:15:00;97141.66;;;28.42;36.77
30856;BME280;17570;0.000;0.000;2023-07-24T05:17:27;97139.00;;;28.78;37.23
30856;BME280;17570;0.000;0.000;2023-07-24T05:19:55;97137.84;;;28.97;39.59
30856;BME280;17570;0.000;0.000;2023-07-24T05:22:22;97129.34;;;29.00;39.62
30856;BME280;17570;0.000;0.000;2023-07-24T05:24:50;97135.28;;;29.02;39.58
30856;BME280;17570;0.000;0.000;2023-07-24T05:27:17;97132.36;;;29.04;39.50
30856;BME280;17570;0.000;0.000;2023-07-24T05:29:45;97129.79;;;29.09;38.87
30856;BME280;17570;0.000;0.000;2023-07-24T05:32:12;97128.87;;;29.15;39.39
30856;BME280;17570;0.000;0.000;2023-07-24T05:34:40;97129.19;;;29.18;38.54
30856;BME280;17570;0.000;0.000;2023-07-24T05:37:07;97141.94;;;29.28;38.53
30856;BME280;17570;0.000;0.000;2023-07-24T05:39:35;97136.48;;;29.35;37.02
30856;BME280;17570;0.000;0.000;2023-07-24T05:42:02;97135.61;;;29.46;36.16
30856;BME280;17570;0.000;0.000;2023-07-24T05:44:30;97138.98;;;29.53;36.18
30856;BME280;17570;0.000;0.000;2023-07-24T05:46:57;97144.45;;;29.58;37.38
30856;BME280;17570;0.000;0.000;2023-07-24T05:49:25;97141.87;;;29.63;37.33
30856;BME280;17570;0.000;0.000;2023-07-24T05:51:52;97140.34;;;29.67;37.74
30856;BME280;17570;0.000;0.000;2023-07-24T05:54:20;97125.66;;;29.70;37.34
30856;BME280;17570;0.000;0.000;2023-07-24T05:56:47;97115.80;;;29.70;36.32
30856;BME280;17570;0.000;0.000;2023-07-24T05:59:15;97121.23;;;29.76;36.33
30856;BME280;17570;0.000;0.000;2023-07-24T06:01:42;97118.05;;;29.79;36.24
30856;BME280;17570;0.000;0.000;2023-07-24T06:04:10;97125.36;;;29.83;36.34
30856;BME280;17570;0.000;0.000;2023-07-24T06:06:37;97134.28;;;29.89;35.76
30856;BME280;17570;0.000;0.000;2023-07-24T06:09:05;97119.16;;;29.94;35.83
30856;BME280;17570;0.000;0.000;2023-07-24T06:11:32;97116.78;;;29.98;35.84
30856;BME280;17570;0.000;0.000;2023-07-24T06:14:00;97107.22;;;30.02;35.81
30856;BME280;17570;0.000;0.000;2023-07-24T06:16:29;97105.20;;;30.09;35.77
30856;BME280;17570;0.000;0.000;2023-07-24T06:18:57;97108.36;;;30.06;34.68
30856;BME280;17570;0.000;0.000;2023-07-24T06:21:25;97110.67;;;30.14;34.65
30856;BME280;17570;0.000;0.000;2023-07-24T06:23:52;97105.64;;;30.18;34.61
30856;BME280;17570;0.000;0.000;2023-07-24T06:26:22;97105.47;;;30.24;34.79
30856;BME280;17570;0.000;0.000;2023-07-24T06:28:50;97101.80;;;30.31;35.07
30856;BME280;17570;0.000;0.000;2023-07-24T06:31:17;97093.95;;;30.41;35.28
30856;BME280;17570;0.000;0.000;2023-07-24T06:33:45;97097.73;;;30.45;35.45
30856;BME280;17570;0.000;0.000;2023-07-24T06:36:12;97088.73;;;30.51;35.18
30856;BME280;17570;0.000;0.000;2023-07-24T06:38:40;97097.65;;;30.57;34.60
30856;BME280;17570;0.000;0.000;2023-07-24T06:41:08;97095.03;;;30.62;34.55
30856;BME280;17570;0.000;0.000;2023-07-24T06:43:36;97088.61;;;30.63;34.48
30856;BME280;17570;0.000;0.000;2023-07-24T06:46:04;97089.52;;;30.68;33.83
30856;BME280;17570;0.000;0.000;2023-07-24T06:48:31;97088.30;;;30.76;33.86
30856;BME280;17570;0.000;0.000;2023-07-24T06:50:59;97089.16;;;30.82;34.43
30856;BME280;17570;0.000;0.000;2023-07-24T06:53:26;97091.91;;;30.87;33.91
30856;BME280;17570;0.000;0.000;2023-07-24T06:55:54;97088.92;;;31.05;34.83
30856;BME280;17570;0.000;0.000;2023-07-24T06:58:21;97091.00;;;31.20;35.15
30856;BME280;17570;0.000;0.000;2023-07-24T07:00:49;97085.56;;;31.37;35.89
30856;BME280;17570;0.000;0.000;2023-07-24T07:03:16;97083.25;;;31.45;35.89
30856;BME280;17570;0.000;0.000;2023-07-24T07:05:43;97081.47;;;31.56;35.91
30856;BME280;17570;0.000;0.000;2023-07-24T07:08:11;97074.58;;;31.65;36.86
30856;BME280;17570;0.000;0.000;2023-07-24T07:10:38;97069.88;;;31.78;36.70
30856;BME280;17570;0.000;0.000;2023-07-24T07:13:06;97066.77;;;31.86;35.73
30856;BME280;17570;0.000;0.000;2023-07-24T07:15:35;97056.91;;;31.96;34.88
30856;BME280;17570;0.000;0.000;2023-07-24T07:18:03;97054.52;;;32.00;34.69
30856;BME280;17570;0.000;0.000;2023-07-24T07:20:30;97051.87;;;32.05;34.19
30856;BME280;17570;0.000;0.000;2023-07-24T07:22:58;97054.59;;;32.10;34.13
30856;BME280;17570;0.000;0.000;2023-07-24T07:25:25;97063.19;;;32.12;34.65
30856;BME280;17570;0.000;0.000;2023-07-24T07:27:53;97060.51;;;32.12;34.42
30856;BME280;17570;0.000;0.000;2023-07-24T07:30:20;97057.05;;;32.17;34.75
30856;BME280;17570;0.000;0.000;2023-07-24T07:32:50;97053.02;;;32.14;33.11
30856;BME280;17570;0.000;0.000;2023-07-24T07:35:18;97058.96;;;32.21;34.61
30856;BME280;17570;0.000;0.000;2023-07-24T07:37:46;97058.96;;;32.21;34.13
30856;BME280;17570;0.000;0.000;2023-07-24T07:40:13;97047.73;;;32.30;33.53
30856;BME280;17570;0.000;0.000;2023-07-24T07:42:41;97054.75;;;32.36;33.18
30856;BME280;17570;0.000;0.000;2023-07-24T07:45:08;97058.84;;;32.38;32.99
30856;BME280;17570;0.000;0.000;2023-07-24T07:47:36;97053.23;;;32.45;33.25
30856;BME280;17570;0.000;0.000;2023-07-24T07:50:04;97051.41;;;32.50;32.62
30856;BME280;17570;0.000;0.000;2023-07-24T07:52:31;97049.80;;;32.55;32.98
30856;BME280;17570;0.000;0.000;2023-07-24T07:54:59;97050.65;;;32.60;33.25
30856;BME280;17570;0.000;0.000;2023-07-24T07:57:26;97059.55;;;32.66;32.51
30856;BME280;17570;0.000;0.000;2023-07-24T07:59:54;97050.42;;;32.72;31.96
30856;BME280;17570;0.000;0.000;2023-07-24T08:02:21;97053.41;;;32.75;30.80
30856;BME280;17570;0.000;0.000;2023-07-24T08:04:48;97053.72;;;32.84;29.81
30856;BME280;17570;0.000;0.000;2023-07-24T08:07:16;97049.16;;;32.90;31.74
30856;BME280;17570;0.000;0.000;2023-07-24T08:09:45;97053.00;;;32.99;30.85
30856;BME280;17570;0.000;0.000;2023-07-24T08:12:13;97047.92;;;33.08;30.97
30856;BME280;17570;0.000;0.000;2023-07-24T08:14:41;97049.27;;;33.15;30.38
30856;BME280;17570;0.000;0.000;2023-07-24T08:17:09;97052.53;;;33.22;29.92
30856;BME280;17570;0.000;0.000;2023-07-24T08:19:37;97048.25;;;33.32;29.97
30856;BME280;17570;0.000;0.000;2023-07-24T08:22:04;97051.77;;;33.42;30.67
30856;BME280;17570;0.000;0.000;2023-07-24T08:24:35;97048.86;;;33.49;30.82
30856;BME280;17570;0.000;0.000;2023-07-24T08:27:02;97040.52;;;33.56;29.97
30856;BME280;17570;0.000;0.000;2023-07-24T08:29:30;97049.41;;;33.66;31.64
30856;BME280;17570;0.000;0.000;2023-07-24T08:31:58;97050.48;;;33.75;32.06
30856;BME280;17570;0.000;0.000;2023-07-24T08:34:25;97044.85;;;33.82;31.66
30856;BME280;17570;0.000;0.000;2023-07-24T08:36:52;97043.77;;;33.93;32.05
30856;BME280;17570;0.000;0.000;2023-07-24T08:39:20;97047.28;;;34.04;32.37
30856;BME280;17570;0.000;0.000;2023-07-24T08:41:47;97050.80;;;34.15;32.10
30856;BME280;17570;0.000;0.000;2023-07-24T08:44:15;97033.80;;;34.24;31.93
30856;BME280;17570;0.000;0.000;2023-07-24T08:46:43;97028.39;;;34.35;32.43
30856;BME280;17570;0.000;0.000;2023-07-24T08:49:12;97033.23;;;34.43;31.66
30856;BME280;17570;0.000;0.000;2023-07-24T08:51:43;97032.16;;;34.49;30.64
30856;BME280;17570;0.000;0.000;2023-07-24T08:54:11;97024.60;;;34.56;30.45
30856;BME280;17570;0.000;0.000;2023-07-24T08:56:39;97021.88;;;34.61;30.07
30856;BME280;17570;0.000;0.000;2023-07-24T08:59:07;97022.94;;;34.70;30.65
30856;BME280;17570;0.000;0.000;2023-07-24T09:01:34;97026.67;;;34.80;31.87
30856;BME280;17570;0.000;0.000;2023-07-24T09:04:02;97030.41;;;34.89;31.08
30856;BME280;17570;0.000;0.000;2023-07-24T09:06:29;97036.05;;;34.97;31.01
30856;BME280;17570;0.000;0.000;2023-07-24T09:08:57;97034.16;;;35.03;30.15
30856;BME280;17570;0.000;0.000;2023-07-24T09:11:24;97037.08;;;35.12;29.16
30856;BME280;17570;0.000;0.000;2023-07-24T09:13:52;97025.97;;;35.18;29.34
30856;BME280;17570;0.000;0.000;2023-07-24T09:16:23;97027.55;;;35.24;28.77
30856;BME280;17570;0.000;0.000;2023-07-24T09:18:51;97021.56;;;35.33;29.56
30856;BME280;17570;0.000;0.000;2023-07-24T09:21:28;97021.52;;;35.38;29.50
30856;BME280;17570;0.000;0.000;2023-07-24T09:23:56;97013.94;;;35.45;29.25
30856;BME280;17570;0.000;0.000;2023-07-24T09:26:24;97017.72;;;35.49;29.48
30856;BME280;17570;0.000;0.000;2023-07-24T09:28:52;97010.63;;;35.58;29.98
30856;BME280;17570;0.000;0.000;2023-07-24T09:31:20;97015.15;;;35.68;29.51
30856;BME280;17570;0.000;0.000;2023-07-24T09:33:47;97009.41;;;35.74;29.57
30856;BME280;17570;0.000;0.000;2023-07-24T09:36:15;97006.11;;;35.83;29.05
30856;BME280;17570;0.000;0.000;2023-07-24T09:38:43;97009.01;;;35.91;28.85
30856;BME280;17570;0.000;0.000;2023-07-24T09:41:12;97010.03;;;36.00;29.07
30856;BME280;17570;0.000;0.000;2023-07-24T09:43:41;97007.50;;;36.09;28.63
30856;BME280;17570;0.000;0.000;2023-07-24T09:46:09;96995.56;;;36.15;27.73
30856;BME280;17570;0.000;0.000;2023-07-24T09:48:36;96995.22;;;36.22;27.54
30856;BME280;17570;0.000;0.000;2023-07-24T09:51:04;96993.55;;;36.26;25.40
30856;BME280;17570;0.000;0.000;2023-07-24T09:53:47;96990.49;;;36.33;26.70
30856;BME280;17570;0.000;0.000;2023-07-24T09:56:13;96991.03;;;36.35;25.96
30856;BME280;17570;0.000;0.000;2023-07-24T09:58:41;96985.92;;;36.33;25.62
30856;BME280;17570;0.000;0.000;2023-07-24T10:01:10;96978.55;;;36.39;26.02
30856;BME280;17570;0.000;0.000;2023-07-24T10:03:39;96979.83;;;36.46;25.83
30856;BME280;17570;0.000;0.000;2023-07-24T10:06:08;96973.79;;;36.55;25.74
30856;BME280;17570;0.000;0.000;2023-07-24T10:08:39;96975.86;;;36.63;27.77
30856;BME280;17570;0.000;0.000;2023-07-24T10:11:10;96968.78;;;36.67;27.47
30856;BME280;17570;0.000;0.000;2023-07-24T10:13:36;96968.14;;;36.75;26.98
30856;BME280;17570;0.000;0.000;2023-07-24T10:16:04;96966.17;;;36.81;27.06
30856;BME280;17570;0.000;0.000;2023-07-24T10:18:41;96960.11;;;36.89;27.85
30856;BME280;17570;0.000;0.000;2023-07-24T10:21:06;96963.78;;;36.98;27.50
30856;BME280;17570;0.000;0.000;2023-07-24T10:23:34;96963.73;;;37.03;27.61
30856;BME280;17570;0.000;0.000;2023-07-24T10:26:04;96956.56;;;37.12;27.93
30856;BME280;17570;0.000;0.000;2023-07-24T10:28:32;96956.41;;;37.22;27.87
30856;BME280;17570;0.000;0.000;2023-07-24T10:31:01;96951.85;;;37.37;28.63
30856;BME280;17570;0.000;0.000;2023-07-24T10:33:31;96952.52;;;37.47;28.07
30856;BME280;17570;0.000;0.000;2023-07-24T10:36:10;96949.05;;;37.61;27.98
30856;BME280;17570;0.000;0.000;2023-07-24T10:38:37;96946.38;;;37.74;28.00
30856;BME280;17570;0.000;0.000;2023-07-24T10:41:05;96949.89;;;37.75;28.09
30856;BME280;17570;0.000;0.000;2023-07-24T10:46:09;96941.31;;;38.00;28.39
30856;BME280;17570;0.000;0.000;2023-07-24T11:01:26;96918.59;;;34.66;33.91
30856;BME280;17570;0.000;0.000;2023-07-24T11:03:53;96909.22;;;36.00;32.72
30856;BME280;17570;0.000;0.000;2023-07-24T11:06:23;96911.73;;;37.71;29.82
30856;BME280;17570;0.000;0.000;2023-07-24T11:08:50;96906.27;;;38.73;28.22
30856;BME280;17570;0.000;0.000;2023-07-24T22:50:14;96655.00;;;26.86;46.51
30856;BME280;17570;0.000;0.000;2023-07-24T22:52:41;96641.64;;;28.18;42.98
30856;BME280;17570;0.000;0.000;2023-07-24T22:55:09;96634.66;;;29.67;39.46
30856;BME280;17570;0.000;0.000;2023-07-24T22:57:36;96637.55;;;30.47;37.41
30856;BME280;17570;0.000;0.000;2023-07-24T23:18:44;96636.02;;;26.70;45.99
30856;BME280;17570;0.000;0.000;2023-07-24T23:21:12;96624.23;;;27.99;43.06
30856;BME280;17570;0.000;0.000;2023-07-24T23:23:39;96615.44;;;29.48;39.72
30856;BME280;17570;0.000;0.000;2023-07-24T23:26:06;96616.47;;;30.23;37.74
30856;BME280;17570;0.000;0.000;2023-07-24T23:28:34;96619.36;;;30.54;37.16
30856;BME280;17570;0.000;0.000;2023-07-24T23:31:02;96608.47;;;30.66;36.65
30856;BME280;17570;0.000;0.000;2023-07-24T23:33:29;96616.00;;;30.69;36.67
30856;BME280;17570;0.000;0.000;2023-07-24T23:35:57;96613.83;;;30.66;36.70
30856;BME280;17570;0.000;0.000;2023-07-24T23:38:24;96618.97;;;30.72;36.62
30856;BME280;17570;0.000;0.000;2023-07-24T23:51:16;96609.05;;;26.79;45.10
30856;BME280;17570;0.000;0.000;2023-07-24T23:53:41;96613.86;;;27.86;42.51
30856;BME280;17570;0.000;0.000;2023-07-24T23:56:09;96607.86;;;29.18;39.57
30856;BME280;17570;0.000;0.000;2023-07-24T23:58:37;96612.15;;;29.90;37.74
